Sandflaesa — LM5781 — position and weather

sailwx.info

Track history (hours):
 
Tides and Currents Weather Stations Pressure Air Temp Water Temp Dewpoint Dewpoint Depression Visibility Wind Speed Wind Dir Waves Ship Positions

Sandflaesa

Last reported at 2018-Apr-23 10:02 UTC. Time now 2018-Apr-23 11:50 UTC.
Position N 66°35' E 012°13'.

Length 11 m.

Type: Fishing. MMSI: 257304820.

Date/timePositionNaut miles runAvg speedWind from/ knotsBaromVisibWave heightAir tempDewpointWater temp
2018-Apr-23 10:02N 66°35' E 012°13'0 0.0
2018-Apr-22 14:31N 66°35' E 012°13'3 6.8
2018-Apr-22 14:03N 66°33' E 012°18'1 7.5
2018-Apr-22 13:57N 66°32' E 012°20'  
2018-Apr-19 07:15N 66°25' E 012°36'2 7.9
2018-Apr-19 06:57N 66°26' E 012°32'4 7.8
2018-Apr-19 06:24N 66°30' E 012°25'3 8.0
2018-Apr-19 06:00N 66°32' E 012°20'4 0.2
2018-Apr-18 12:29N 66°34' E 012°11'4 7.8
2018-Apr-18 12:00N 66°30' E 012°07'1 1.9
2018-Apr-18 11:30N 66°30' E 012°05'1 2.6
2018-Apr-18 11:00N 66°31' E 012°07'4 7.4
2018-Apr-18 10:30N 66°34' E 012°05'3 1.8
2018-Apr-18 09:02N 66°37' E 012°04'4 0.2
2018-Apr-17 12:26N 66°35' E 012°14'4 8.2
2018-Apr-17 12:00N 66°32' E 012°08'3 5.8
2018-Apr-17 11:30N 66°30' E 012°05'1 2.0
2018-Apr-17 11:00N 66°31' E 012°07'4 7.9
2018-Apr-17 10:30N 66°34' E 012°08'3 2.1
2018-Apr-17 09:10N 66°37' E 012°04'0 0.5
2018-Apr-17 08:48N 66°37' E 012°04'5 0.3
2018-Apr-16 12:54N 66°32' E 012°11'3 7.3
2018-Apr-16 12:30N 66°30' E 012°06'1 0.9
2018-Apr-16 11:58N 66°30' E 012°05'0 0.0
2018-Apr-16 11:28N 66°30' E 012°05'1 2.8
2018-Apr-16 11:00N 66°31' E 012°07'4 7.6
2018-Apr-16 10:30N 66°35' E 012°08'3 5.4
2018-Apr-16 09:58N 66°38' E 012°07'0 0.2
2018-Apr-16 09:22N 66°38' E 012°07'0 0.2
2018-Apr-16 08:52N 66°38' E 012°06'1 0.3
2018-Apr-16 06:06N 66°38' E 012°04'1 7.2
2018-Apr-16 05:59N 66°37' E 012°04'2 2.8
2018-Apr-16 05:09N 66°38' E 012°09'0 0.1
2018-Apr-16 04:57N 66°38' E 012°09'4 0.2
2018-Apr-15 12:47N 66°35' E 012°13'1 3.0
2018-Apr-15 12:29N 66°36' E 012°12'2 4.0
2018-Apr-15 12:00N 66°37' E 012°08'1 1.4
2018-Apr-15 11:28N 66°37' E 012°07'0 0.2
2018-Apr-15 10:58N 66°38' E 012°07'0 0.2
2018-Apr-15 10:28N 66°38' E 012°07'1 0.3
2018-Apr-15 06:07N 66°39' E 012°09'4 5.9
2018-Apr-15 05:28N 66°35' E 012°13'0 0.0
2018-Apr-14 11:34N 66°35' E 012°13'1 7.0
2018-Apr-14 11:30N 66°35' E 012°12'2 5.1
2018-Apr-14 11:00N 66°37' E 012°08'3 0.1
2018-Apr-13 14:21N 66°35' E 012°13'0 0.1
2018-Apr-13 12:23N 66°35' E 012°13'4 6.2
2018-Apr-13 11:45N 66°39' E 012°09'  
Track history (hours):
 
Tides and Currents Weather Stations Pressure Air Temp Water Temp Dewpoint Dewpoint Depression Visibility Wind Speed Wind Dir Waves Ship Positions

Sandflaesa

Last reported at 2018-Apr-23 10:02 UTC. Time now 2018-Apr-23 11:50 UTC.
Position N 66°35' E 012°13'.

Length 11 m.

Type: Fishing. MMSI: 257304820.

Date/timePositionNaut miles runAvg speedWind from/ knotsBaromVisibWave heightAir tempDewpointWater temp
2018-Apr-23 10:02N 66°35' E 012°13'0 0.0
2018-Apr-22 14:31N 66°35' E 012°13'3 6.8
2018-Apr-22 14:03N 66°33' E 012°18'1 7.5
2018-Apr-22 13:57N 66°32' E 012°20'  
2018-Apr-19 07:15N 66°25' E 012°36'2 7.9
2018-Apr-19 06:57N 66°26' E 012°32'4 7.8
2018-Apr-19 06:24N 66°30' E 012°25'3 8.0
2018-Apr-19 06:00N 66°32' E 012°20'4 0.2
2018-Apr-18 12:29N 66°34' E 012°11'4 7.8
2018-Apr-18 12:00N 66°30' E 012°07'1 1.9
2018-Apr-18 11:30N 66°30' E 012°05'1 2.6
2018-Apr-18 11:00N 66°31' E 012°07'4 7.4
2018-Apr-18 10:30N 66°34' E 012°05'3 1.8
2018-Apr-18 09:02N 66°37' E 012°04'4 0.2
2018-Apr-17 12:26N 66°35' E 012°14'4 8.2
2018-Apr-17 12:00N 66°32' E 012°08'3 5.8
2018-Apr-17 11:30N 66°30' E 012°05'1 2.0
2018-Apr-17 11:00N 66°31' E 012°07'4 7.9
2018-Apr-17 10:30N 66°34' E 012°08'3 2.1
2018-Apr-17 09:10N 66°37' E 012°04'0 0.5
2018-Apr-17 08:48N 66°37' E 012°04'5 0.3
2018-Apr-16 12:54N 66°32' E 012°11'3 7.3
2018-Apr-16 12:30N 66°30' E 012°06'1 0.9
2018-Apr-16 11:58N 66°30' E 012°05'0 0.0
2018-Apr-16 11:28N 66°30' E 012°05'1 2.8
2018-Apr-16 11:00N 66°31' E 012°07'4 7.6
2018-Apr-16 10:30N 66°35' E 012°08'3 5.4
2018-Apr-16 09:58N 66°38' E 012°07'0 0.2
2018-Apr-16 09:22N 66°38' E 012°07'0 0.2
2018-Apr-16 08:52N 66°38' E 012°06'1 0.3
2018-Apr-16 06:06N 66°38' E 012°04'1 7.2
2018-Apr-16 05:59N 66°37' E 012°04'2 2.8
2018-Apr-16 05:09N 66°38' E 012°09'0 0.1
2018-Apr-16 04:57N 66°38' E 012°09'4 0.2
2018-Apr-15 12:47N 66°35' E 012°13'1 3.0
2018-Apr-15 12:29N 66°36' E 012°12'2 4.0
2018-Apr-15 12:00N 66°37' E 012°08'1 1.4
2018-Apr-15 11:28N 66°37' E 012°07'0 0.2
2018-Apr-15 10:58N 66°38' E 012°07'0 0.2
2018-Apr-15 10:28N 66°38' E 012°07'1 0.3
2018-Apr-15 06:07N 66°39' E 012°09'4 5.9
2018-Apr-15 05:28N 66°35' E 012°13'0 0.0
2018-Apr-14 11:34N 66°35' E 012°13'1 7.0
2018-Apr-14 11:30N 66°35' E 012°12'2 5.1
2018-Apr-14 11:00N 66°37' E 012°08'3 0.1
2018-Apr-13 14:21N 66°35' E 012°13'0 0.1
2018-Apr-13 12:23N 66°35' E 012°13'4 6.2
2018-Apr-13 11:45N 66°39' E 012°09'  

Dump ship's entire track history